Time;durP1;ratioP1;P1;durP2;ratioP2;P2;SDS_P1;SDS_P2;PMS_P1;PMS_P2;Temp;Humidity;BMP_temperature;BMP_pressure;BME280_temperature;BME280_humidity;BME280_pressure;Samples;Min_cycle;Max_cycle;Signal;HPM_P1;HPM_P2
2023/01/03 00:01:53;;;;;;;;;;;8.40;99.90;;;;;;5144892;27;19982;-70
2023/01/03 00:04:22;;;;;;;;;;;8.40;99.90;;;;;;5144837;27;20110;-71
2023/01/03 00:06:49;;;;;;;;;;;8.40;99.90;;;;;;5144069;27;19926;-71
2023/01/03 00:09:17;;;;;;;;;;;8.30;99.90;;;;;;5144604;27;19982;-71
2023/01/03 00:14:44;;;;;;;;;;;8.30;99.90;;;;;;5081388;28;19983;-70
2023/01/03 00:17:11;;;;;;;;;;;8.40;99.90;;;;;;5080698;28;19927;-70
2023/01/03 00:19:40;;;;;;;;;;;8.40;99.90;;;;;;5100147;28;19965;-71
2023/01/03 00:22:07;;;;;;;;;;;8.40;99.90;;;;;;5123930;28;19982;-69
2023/01/03 00:24:34;;;;;;;;;;;8.40;99.90;;;;;;5123865;28;20298;-71
2023/01/03 00:27:00;;;;;;;;;;;8.40;99.90;;;;;;5123291;28;19982;-71
2023/01/03 00:29:27;;;;;;;;;;;8.40;99.90;;;;;;5124090;28;19986;-71
2023/01/03 00:31:54;;;;;;;;;;;8.30;99.90;;;;;;5124028;28;19946;-71
2023/01/03 00:34:20;;;;;;;;;;;8.30;99.90;;;;;;5123696;28;20222;-71
2023/01/03 00:36:48;;;;;;;;;;;8.30;99.90;;;;;;5123195;28;19991;-70
2023/01/03 00:39:15;;;;;;;;;;;8.40;99.90;;;;;;5124034;28;20265;-70
2023/01/03 00:41:41;;;;;;;;;;;8.30;99.90;;;;;;5123738;28;20239;-71
2023/01/03 00:44:08;;;;;;;;;;;8.20;99.90;;;;;;5123555;28;19955;-71
2023/01/03 00:46:35;;;;;;;;;;;8.20;99.90;;;;;;5123144;28;20207;-71
2023/01/03 00:49:02;;;;;;;;;;;8.20;99.90;;;;;;5123860;28;19995;-70
2023/01/03 00:51:30;;;;;;;;;;;8.20;99.90;;;;;;5123967;28;19987;-71
2023/01/03 00:53:59;;;;;;;;;;;8.20;99.90;;;;;;5123655;28;19995;-71
2023/01/03 00:56:26;;;;;;;;;;;8.10;99.90;;;;;;5125680;28;19991;-71
2023/01/03 00:58:53;;;;;;;;;;;8.00;99.90;;;;;;5123709;28;19987;-70
2023/01/03 01:01:21;;;;;;;;;;;8.00;99.90;;;;;;5123614;28;20279;-70
2023/01/03 01:03:49;;;;;;;;;;;8.00;99.90;;;;;;5126142;28;21303;-71
2023/01/03 01:06:17;;;;;;;;;;;7.90;99.90;;;;;;5143657;27;19982;-71
2023/01/03 01:08:44;;;;;;;;;;;7.90;99.90;;;;;;5147552;27;19927;-71
2023/01/03 01:11:13;;;;;;;;;;;7.90;99.90;;;;;;5147529;27;20274;-71
2023/01/03 01:13:40;;;;;;;;;;;7.90;99.90;;;;;;5147453;27;19990;-71
2023/01/03 01:16:08;;;;;;;;;;;7.90;99.90;;;;;;5147075;27;20242;-70
2023/01/03 01:18:35;;;;;;;;;;;7.90;99.90;;;;;;5146390;27;19919;-71
2023/01/03 01:21:04;;;;;;;;;;;7.90;99.90;;;;;;5127105;28;19926;-70
2023/01/03 01:23:30;;;;;;;;;;;7.80;99.90;;;;;;5127137;28;19920;-71
2023/01/03 01:25:59;;;;;;;;;;;7.90;99.90;;;;;;5126694;27;20021;-71
2023/01/03 01:28:27;;;;;;;;;;;7.80;99.90;;;;;;5126849;28;19935;-70
2023/01/03 01:30:54;;;;;;;;;;;7.80;99.90;;;;;;5126987;28;20188;-70
2023/01/03 01:33:20;;;;;;;;;;;7.80;99.90;;;;;;5126433;28;19981;-71
2023/01/03 01:35:47;;;;;;;;;;;7.80;99.90;;;;;;5126477;28;19995;-71
2023/01/03 01:38:13;;;;;;;;;;;7.80;99.90;;;;;;5126417;27;19955;-72
2023/01/03 01:40:40;;;;;;;;;;;7.80;99.90;;;;;;5126279;28;19979;-71
2023/01/03 01:46:00;;;;;;;;;;;7.80;99.90;;;;;;5126011;28;19982;-71
2023/01/03 01:48:27;;;;;;;;;;;7.90;99.90;;;;;;5126419;28;19927;-71
2023/01/03 01:50:55;;;;;;;;;;;7.90;99.90;;;;;;5126607;28;19963;-71
2023/01/03 01:53:25;;;;;;;;;;;7.90;99.90;;;;;;5126439;28;19920;-71
2023/01/03 01:55:52;;;;;;;;;;;7.80;99.90;;;;;;5126067;28;19978;-70
2023/01/03 01:58:19;;;;;;;;;;;7.80;99.90;;;;;;5126090;28;19957;-71
2023/01/03 02:00:46;;;;;;;;;;;7.80;99.90;;;;;;5126348;28;20132;-71
2023/01/03 02:03:14;;;;;;;;;;;7.80;99.90;;;;;;5126284;28;19920;-71
2023/01/03 02:05:43;;;;;;;;;;;7.80;99.90;;;;;;5126072;28;19995;-70
2023/01/03 02:08:09;;;;;;;;;;;7.80;99.90;;;;;;5125867;27;19982;-71
2023/01/03 02:10:43;;;;;;;;;;;7.80;99.90;;;;;;5126138;28;19959;-71
2023/01/03 02:13:14;;;;;;;;;;;7.80;99.90;;;;;;5126133;28;19919;-72
2023/01/03 02:15:49;;;;;;;;;;;7.80;99.90;;;;;;5125479;28;20259;-72
2023/01/03 02:18:27;;;;;;;;;;;7.80;99.90;;;;;;5125633;28;20175;-70
2023/01/03 02:21:02;;;;;;;;;;;7.80;99.90;;;;;;5125691;28;20211;-69
2023/01/03 02:23:46;;;;;;;;;;;7.80;99.90;;;;;;5126110;28;19952;-70
2023/01/03 02:26:33;;;;;;;;;;;7.80;99.90;;;;;;5124819;28;19920;-71
2023/01/03 02:29:06;;;;;;;;;;;7.80;99.90;;;;;;5133602;27;19974;-70
2023/01/03 02:31:38;;;;;;;;;;;7.80;99.90;;;;;;5145835;27;19962;-71
2023/01/03 02:34:09;;;;;;;;;;;7.80;99.90;;;;;;5146002;27;19995;-71
2023/01/03 02:36:45;;;;;;;;;;;7.80;99.90;;;;;;5145283;27;20203;-71
2023/01/03 02:39:14;;;;;;;;;;;7.70;99.90;;;;;;5146332;27;19987;-71
2023/01/03 02:41:44;;;;;;;;;;;7.70;99.90;;;;;;5146168;27;19979;-70
2023/01/03 02:44:14;;;;;;;;;;;7.70;99.90;;;;;;5146363;27;19924;-71
2023/01/03 02:46:44;;;;;;;;;;;7.70;99.90;;;;;;5145343;27;19941;-71
2023/01/03 02:49:13;;;;;;;;;;;7.70;99.90;;;;;;5145734;27;20281;-71
2023/01/03 02:51:43;;;;;;;;;;;7.60;99.90;;;;;;5145763;27;19920;-71
2023/01/03 02:54:11;;;;;;;;;;;7.60;99.90;;;;;;5145581;27;19920;-70
2023/01/03 02:56:39;;;;;;;;;;;7.60;99.90;;;;;;5145198;27;19920;-70
2023/01/03 02:59:08;;;;;;;;;;;7.60;99.90;;;;;;5145922;27;19925;-70
2023/01/03 03:01:35;;;;;;;;;;;7.60;99.90;;;;;;5145804;27;19919;-71
2023/01/03 03:04:05;;;;;;;;;;;7.60;99.90;;;;;;5145776;27;19990;-71
2023/01/03 03:06:35;;;;;;;;;;;7.50;99.90;;;;;;5145005;27;19927;-71
2023/01/03 03:09:02;;;;;;;;;;;7.50;99.90;;;;;;5145367;27;19958;-70
2023/01/03 03:14:16;;;;;;;;;;;7.50;99.90;;;;;;5124554;27;20149;-70
2023/01/03 03:16:49;;;;;;;;;;;7.50;99.90;;;;;;5124000;28;19973;-69
2023/01/03 03:25:02;;;;;;;;;;;7.40;99.90;;;;;;5124620;28;19930;-71
2023/01/03 03:30:16;;;;;;;;;;;7.30;99.90;;;;;;5138665;27;19938;-71
2023/01/03 03:32:45;;;;;;;;;;;7.20;99.90;;;;;;5145158;27;19925;-70
2023/01/03 03:35:14;;;;;;;;;;;7.20;99.90;;;;;;5144767;27;20203;-70
2023/01/03 03:37:42;;;;;;;;;;;7.20;99.90;;;;;;5144123;27;19920;-71
2023/01/03 03:45:44;;;;;;;;;;;7.10;99.90;;;;;;5144649;27;20178;-71
2023/01/03 03:48:13;;;;;;;;;;;7.10;99.90;;;;;;5144798;27;19919;-71
2023/01/03 03:50:45;;;;;;;;;;;7.10;99.90;;;;;;5145094;27;19919;-70
2023/01/03 03:53:12;;;;;;;;;;;7.00;99.90;;;;;;5145085;28;19961;-70
2023/01/03 03:55:41;;;;;;;;;;;7.00;99.90;;;;;;5144735;27;19942;-71
2023/01/03 03:58:11;;;;;;;;;;;7.10;99.90;;;;;;5144484;27;19919;-70
2023/01/03 04:00:39;;;;;;;;;;;7.00;99.90;;;;;;5144605;27;20230;-70
2023/01/03 04:03:06;;;;;;;;;;;7.00;99.90;;;;;;5144700;28;20215;-72
2023/01/03 04:05:36;;;;;;;;;;;6.90;99.90;;;;;;5144803;27;20110;-71
2023/01/03 04:08:04;;;;;;;;;;;6.90;99.90;;;;;;5144054;28;19986;-70
2023/01/03 04:10:31;;;;;;;;;;;6.80;99.90;;;;;;5144834;28;19926;-71
2023/01/03 04:12:57;;;;;;;;;;;6.80;99.90;;;;;;5144829;27;19962;-71
2023/01/03 04:15:24;;;;;;;;;;;6.80;99.90;;;;;;5144746;27;19996;-70
2023/01/03 04:17:51;;;;;;;;;;;6.80;99.90;;;;;;5144165;27;19919;-71
2023/01/03 04:20:18;;;;;;;;;;;6.80;99.90;;;;;;5144804;27;19942;-71
2023/01/03 04:22:45;;;;;;;;;;;6.70;99.90;;;;;;5144489;27;20208;-69
2023/01/03 04:25:13;;;;;;;;;;;6.70;99.90;;;;;;5144286;27;19958;-70
2023/01/03 04:27:39;;;;;;;;;;;6.70;99.90;;;;;;5143824;27;19919;-71
2023/01/03 04:30:06;;;;;;;;;;;6.70;99.90;;;;;;5144643;27;19947;-71
2023/01/03 04:32:33;;;;;;;;;;;6.70;99.90;;;;;;5144621;28;19938;-70
2023/01/03 04:35:00;;;;;;;;;;;6.70;99.90;;;;;;5144569;27;20352;-70
2023/01/03 04:37:26;;;;;;;;;;;6.70;99.90;;;;;;5143861;28;19947;-71
2023/01/03 04:39:53;;;;;;;;;;;6.70;99.90;;;;;;5144569;28;19950;-71
2023/01/03 04:45:06;;;;;;;;;;;6.70;99.90;;;;;;5148254;27;19926;-71
2023/01/03 04:47:32;;;;;;;;;;;6.70;99.90;;;;;;5147736;27;19990;-70
2023/01/03 04:49:59;;;;;;;;;;;6.50;99.90;;;;;;5148452;27;20020;-70
2023/01/03 04:52:25;;;;;;;;;;;6.50;99.90;;;;;;5148022;27;19919;-70
2023/01/03 04:54:52;;;;;;;;;;;6.40;99.90;;;;;;5147988;27;19994;-70
2023/01/03 04:57:19;;;;;;;;;;;6.40;99.90;;;;;;5147371;27;19983;-71
2023/01/03 04:59:47;;;;;;;;;;;6.40;99.90;;;;;;5148151;27;19986;-70
2023/01/03 05:02:13;;;;;;;;;;;6.30;99.90;;;;;;5147970;27;19986;-70
2023/01/03 05:04:40;;;;;;;;;;;6.30;99.90;;;;;;5147510;27;19958;-70
2023/01/03 05:07:06;;;;;;;;;;;6.30;99.90;;;;;;5147249;27;19958;-70
2023/01/03 05:09:33;;;;;;;;;;;6.30;99.90;;;;;;5147898;27;19946;-71
2023/01/03 05:12:00;;;;;;;;;;;6.30;99.90;;;;;;5147481;27;19925;-71
2023/01/03 05:14:26;;;;;;;;;;;6.30;99.90;;;;;;5135610;27;19990;-70
2023/01/03 05:16:54;;;;;;;;;;;6.20;99.90;;;;;;5126259;28;19947;-71
2023/01/03 05:19:21;;;;;;;;;;;6.20;99.90;;;;;;5126959;28;20199;-71
2023/01/03 05:27:22;;;;;;;;;;;6.20;99.90;;;;;;5142227;27;20218;-71
2023/01/03 05:29:49;;;;;;;;;;;6.20;99.90;;;;;;5147733;27;19951;-71
2023/01/03 05:32:17;;;;;;;;;;;6.20;99.90;;;;;;5147316;27;20045;-70
2023/01/03 05:34:44;;;;;;;;;;;6.20;99.90;;;;;;5134789;27;19919;-71
2023/01/03 05:37:10;;;;;;;;;;;6.20;99.90;;;;;;5141458;27;19951;-71
2023/01/03 05:39:37;;;;;;;;;;;6.10;99.90;;;;;;5126686;28;19982;-71
2023/01/03 05:42:04;;;;;;;;;;;6.10;99.90;;;;;;5129244;27;19919;-72
2023/01/03 05:44:32;;;;;;;;;;;6.10;99.90;;;;;;5126750;28;19920;-71
2023/01/03 05:46:59;;;;;;;;;;;6.00;99.90;;;;;;5125953;28;20162;-71
2023/01/03 05:49:27;;;;;;;;;;;6.00;99.90;;;;;;5167155;27;19978;-71
2023/01/03 05:51:53;;;;;;;;;;;5.90;99.90;;;;;;5167889;27;20241;-71
2023/01/03 05:54:21;;;;;;;;;;;5.90;99.90;;;;;;5165057;27;19986;-72
2023/01/03 05:56:47;;;;;;;;;;;5.90;99.90;;;;;;5167278;27;19990;-71
2023/01/03 05:59:14;;;;;;;;;;;5.80;99.90;;;;;;5167827;27;19925;-72
2023/01/03 06:01:41;;;;;;;;;;;5.80;99.90;;;;;;5167427;27;20115;-72
2023/01/03 06:04:08;;;;;;;;;;;5.70;99.90;;;;;;5167451;27;19986;-71
2023/01/03 06:06:36;;;;;;;;;;;5.70;99.90;;;;;;5166917;27;19950;-71
2023/01/03 06:09:02;;;;;;;;;;;5.70;99.90;;;;;;5167557;27;19986;-72
2023/01/03 06:11:29;;;;;;;;;;;5.70;99.90;;;;;;5167042;27;19968;-70
2023/01/03 06:13:55;;;;;;;;;;;5.70;99.90;;;;;;5142237;27;19962;-72
2023/01/03 06:19:07;;;;;;;;;;;5.60;99.90;;;;;;5125821;28;19922;-71
2023/01/03 06:21:33;;;;;;;;;;;5.60;99.90;;;;;;5125910;28;19951;-71
2023/01/03 06:24:02;;;;;;;;;;;5.50;99.90;;;;;;5125985;28;19983;-70
2023/01/03 06:26:28;;;;;;;;;;;5.50;99.90;;;;;;5125002;28;19987;-71
2023/01/03 06:28:56;;;;;;;;;;;5.40;99.90;;;;;;5123197;28;19951;-71
2023/01/03 06:31:23;;;;;;;;;;;5.40;99.90;;;;;;5125848;28;19983;-70
2023/01/03 06:33:49;;;;;;;;;;;5.40;99.90;;;;;;5125773;28;20199;-70
2023/01/03 06:36:17;;;;;;;;;;;5.30;99.90;;;;;;5124545;28;20108;-71
2023/01/03 06:38:43;;;;;;;;;;;5.30;99.90;;;;;;5125622;28;19920;-70
2023/01/03 06:41:12;;;;;;;;;;;5.40;99.90;;;;;;5125692;28;20193;-70
2023/01/03 06:43:39;;;;;;;;;;;5.40;99.90;;;;;;5125256;28;19920;-70
2023/01/03 06:54:20;;;;;;;;;;;5.30;99.90;;;;;;5125069;28;19927;-70
2023/01/03 06:56:48;;;;;;;;;;;5.30;99.90;;;;;;5124450;28;19974;-70
2023/01/03 06:59:15;;;;;;;;;;;5.30;99.90;;;;;;5124953;28;19993;-70
2023/01/03 07:01:41;;;;;;;;;;;5.30;99.90;;;;;;5124999;28;19982;-70
2023/01/03 07:04:08;;;;;;;;;;;5.20;99.90;;;;;;5124778;28;19962;-70
2023/01/03 07:06:35;;;;;;;;;;;5.20;99.90;;;;;;5123862;28;19947;-71
2023/01/03 07:09:01;;;;;;;;;;;5.10;99.90;;;;;;5125063;28;20002;-70
2023/01/03 07:11:28;;;;;;;;;;;5.10;99.90;;;;;;5125066;28;19947;-70
2023/01/03 07:13:58;;;;;;;;;;;5.10;99.90;;;;;;5124985;28;19995;-70
2023/01/03 07:16:25;;;;;;;;;;;5.10;99.90;;;;;;5124226;28;19919;-70
2023/01/03 07:18:52;;;;;;;;;;;5.10;99.90;;;;;;5124528;28;19955;-70
2023/01/03 07:21:18;;;;;;;;;;;5.10;99.90;;;;;;5124906;28;19947;-70
2023/01/03 07:23:45;;;;;;;;;;;5.10;99.90;;;;;;5124828;28;19951;-70
2023/01/03 07:26:12;;;;;;;;;;;5.00;99.90;;;;;;5124126;28;19989;-70
2023/01/03 07:28:39;;;;;;;;;;;4.90;99.90;;;;;;5122146;28;20245;-70
2023/01/03 07:31:07;;;;;;;;;;;4.90;99.90;;;;;;5124717;28;19920;-70
2023/01/03 07:33:36;;;;;;;;;;;4.90;99.90;;;;;;5124631;28;19982;-70
2023/01/03 07:36:03;;;;;;;;;;;4.80;99.90;;;;;;5124075;28;19990;-70
2023/01/03 07:38:30;;;;;;;;;;;4.80;99.90;;;;;;5124374;28;19951;-70
2023/01/03 07:40:57;;;;;;;;;;;4.80;99.90;;;;;;5124470;28;19983;-71
2023/01/03 07:43:38;;;;;;;;;;;4.80;99.90;;;;;;5124036;28;19920;-74
2023/01/03 07:46:05;;;;;;;;;;;4.80;99.90;;;;;;5123654;28;19916;-70
2023/01/03 07:48:33;;;;;;;;;;;4.80;99.90;;;;;;5126229;28;20008;-70
2023/01/03 07:51:00;;;;;;;;;;;4.70;99.90;;;;;;5142778;27;19920;-70
2023/01/03 07:53:28;;;;;;;;;;;4.70;99.90;;;;;;5144201;27;19926;-70
2023/01/03 07:56:00;;;;;;;;;;;4.70;99.90;;;;;;5143704;27;20229;-70
2023/01/03 07:58:27;;;;;;;;;;;4.60;99.90;;;;;;5144457;27;19955;-70
2023/01/03 08:00:53;;;;;;;;;;;4.70;99.90;;;;;;5144164;27;20578;-73
2023/01/03 08:03:20;;;;;;;;;;;4.70;99.90;;;;;;5144768;27;19946;-71
2023/01/03 08:05:48;;;;;;;;;;;4.70;99.90;;;;;;5144246;27;19950;-72
2023/01/03 08:08:15;;;;;;;;;;;4.70;99.90;;;;;;5144420;27;19919;-71
2023/01/03 08:13:25;;;;;;;;;;;4.50;99.90;;;;;;5144512;28;20233;-71
2023/01/03 08:15:54;;;;;;;;;;;4.50;99.90;;;;;;5144761;27;19999;-71
2023/01/03 08:18:21;;;;;;;;;;;4.50;99.90;;;;;;5148138;27;19926;-71
2023/01/03 08:20:50;;;;;;;;;;;4.50;99.90;;;;;;5148665;27;19987;-71
2023/01/03 08:23:17;;;;;;;;;;;4.60;99.90;;;;;;5148529;27;19919;-71
2023/01/03 08:25:43;;;;;;;;;;;4.60;99.90;;;;;;5148444;27;20237;-71
2023/01/03 08:28:14;;;;;;;;;;;4.60;99.90;;;;;;5144779;27;19970;-71
2023/01/03 08:30:42;;;;;;;;;;;4.60;99.90;;;;;;5147004;27;20177;-71
2023/01/03 08:33:10;;;;;;;;;;;4.60;99.90;;;;;;5147898;27;19926;-71
2023/01/03 08:35:38;;;;;;;;;;;4.70;99.90;;;;;;5148126;27;20149;-71
2023/01/03 08:38:08;;;;;;;;;;;4.70;99.90;;;;;;5147724;27;19920;-71
2023/01/03 08:40:37;;;;;;;;;;;4.80;99.90;;;;;;5147692;27;19919;-72
2023/01/03 08:43:04;;;;;;;;;;;4.80;99.90;;;;;;5147858;27;19919;-72
2023/01/03 08:45:30;;;;;;;;;;;4.90;99.90;;;;;;5148445;27;19986;-71
2023/01/03 08:48:00;;;;;;;;;;;5.00;99.90;;;;;;5146736;27;19990;-71
2023/01/03 08:50:29;;;;;;;;;;;5.10;99.90;;;;;;5148111;27;19919;-71
2023/01/03 08:52:56;;;;;;;;;;;5.20;99.90;;;;;;5147917;27;20254;-71
2023/01/03 08:55:24;;;;;;;;;;;5.30;99.90;;;;;;5148086;27;19933;-71
2023/01/03 08:57:50;;;;;;;;;;;5.30;99.90;;;;;;5147339;27;19986;-71
2023/01/03 09:00:17;;;;;;;;;;;5.40;99.90;;;;;;5147586;27;20223;-71
2023/01/03 09:02:44;;;;;;;;;;;5.50;99.90;;;;;;5148010;27;19965;-70
2023/01/03 09:05:10;;;;;;;;;;;5.60;99.90;;;;;;5147710;27;20194;-71
2023/01/03 09:07:37;;;;;;;;;;;5.60;99.90;;;;;;5147258;27;19954;-71
2023/01/03 09:10:04;;;;;;;;;;;5.70;99.90;;;;;;5147149;27;19919;-73
2023/01/03 09:12:32;;;;;;;;;;;5.70;99.90;;;;;;5147350;27;20018;-71
2023/01/03 09:14:58;;;;;;;;;;;5.80;99.90;;;;;;5147343;27;19994;-71
2023/01/03 09:17:25;;;;;;;;;;;5.90;99.90;;;;;;5147053;27;19982;-71
2023/01/03 09:19:52;;;;;;;;;;;5.90;99.90;;;;;;5146023;27;19934;-71
2023/01/03 09:22:18;;;;;;;;;;;5.90;99.90;;;;;;5146675;27;19950;-71
2023/01/03 09:24:45;;;;;;;;;;;6.10;99.90;;;;;;5147564;27;19953;-71
2023/01/03 09:27:11;;;;;;;;;;;6.20;99.90;;;;;;5145651;27;20184;-71
2023/01/03 09:29:41;;;;;;;;;;;6.30;99.90;;;;;;5144629;27;19954;-71
2023/01/03 09:32:07;;;;;;;;;;;6.30;99.90;;;;;;5147230;27;19951;-72
2023/01/03 09:34:34;;;;;;;;;;;6.30;99.90;;;;;;5147179;27;19919;-70
2023/01/03 09:37:03;;;;;;;;;;;6.40;99.90;;;;;;5146088;27;20270;-70
2023/01/03 09:39:29;;;;;;;;;;;6.50;99.90;;;;;;5147505;27;19919;-71
2023/01/03 09:44:41;;;;;;;;;;;6.60;99.90;;;;;;5147121;27;19922;-71
2023/01/03 09:47:12;;;;;;;;;;;6.60;99.90;;;;;;5146311;27;19986;-71
2023/01/03 09:49:39;;;;;;;;;;;6.70;99.90;;;;;;5146746;27;19986;-70
2023/01/03 10:06:00;;;;;;;;;;;6.70;99.90;;;;;;5146019;27;19923;-71
2023/01/03 10:08:34;;;;;;;;;;;6.80;99.90;;;;;;5146254;27;19990;-70
2023/01/03 10:11:03;;;;;;;;;;;6.80;99.90;;;;;;5144553;27;19986;-70
2023/01/03 10:13:33;;;;;;;;;;;6.80;99.90;;;;;;5146434;27;20215;-72
2023/01/03 10:16:05;;;;;;;;;;;6.80;99.90;;;;;;5146192;27;19920;-71
2023/01/03 10:18:47;;;;;;;;;;;6.90;99.90;;;;;;5132807;27;20254;-71
2023/01/03 10:21:19;;;;;;;;;;;6.90;99.90;;;;;;5125757;28;19986;-71
2023/01/03 10:23:48;;;;;;;;;;;6.90;99.90;;;;;;5125951;28;19987;-71
2023/01/03 10:26:14;;;;;;;;;;;7.00;99.90;;;;;;5124875;28;19951;-71
2023/01/03 10:28:43;;;;;;;;;;;7.00;99.90;;;;;;5122824;28;19994;-75
2023/01/03 10:31:19;;;;;;;;;;;7.00;99.90;;;;;;5125639;28;19973;-71
2023/01/03 10:33:46;;;;;;;;;;;7.10;99.90;;;;;;5125425;28;20223;-71
2023/01/03 10:36:14;;;;;;;;;;;7.20;99.90;;;;;;5143529;27;19919;-71
2023/01/03 10:38:41;;;;;;;;;;;7.20;99.90;;;;;;5147373;27;19986;-71
2023/01/03 10:41:15;;;;;;;;;;;7.30;99.90;;;;;;5147206;27;19955;-71
2023/01/03 10:43:43;;;;;;;;;;;7.40;99.90;;;;;;5145483;27;19991;-71
2023/01/03 10:46:13;;;;;;;;;;;7.50;99.90;;;;;;5144557;27;19960;-71
2023/01/03 10:48:42;;;;;;;;;;;7.60;99.90;;;;;;5145908;27;19927;-71
2023/01/03 10:51:23;;;;;;;;;;;7.70;99.90;;;;;;5145529;27;20140;-71
2023/01/03 10:53:51;;;;;;;;;;;7.90;99.90;;;;;;5145150;27;19978;-71
2023/01/03 10:56:18;;;;;;;;;;;7.90;99.90;;;;;;5142512;27;19926;-71
2023/01/03 10:58:44;;;;;;;;;;;8.00;99.90;;;;;;5145327;27;20214;-71
2023/01/03 11:01:18;;;;;;;;;;;8.20;99.90;;;;;;5130060;27;19979;-71
2023/01/03 11:04:05;;;;;;;;;;;8.20;99.90;;;;;;5145095;27;19919;-71
2023/01/03 11:06:33;;;;;;;;;;;8.30;99.90;;;;;;5140009;27;20085;-71
2023/01/03 11:09:01;;;;;;;;;;;8.30;99.90;;;;;;5142863;27;19919;-72
2023/01/03 11:11:28;;;;;;;;;;;8.40;99.90;;;;;;5156958;27;19919;-71
2023/01/03 11:14:05;;;;;;;;;;;8.30;99.90;;;;;;5166396;27;19919;-72
2023/01/03 11:16:32;;;;;;;;;;;8.40;99.90;;;;;;5138788;27;19919;-71
2023/01/03 11:19:02;;;;;;;;;;;8.40;99.90;;;;;;5124480;28;19958;-72
2023/01/03 11:21:30;;;;;;;;;;;8.40;99.90;;;;;;5127806;27;20167;-71
2023/01/03 11:24:00;;;;;;;;;;;8.50;99.90;;;;;;5139732;27;19919;-71
2023/01/03 11:26:33;;;;;;;;;;;8.50;99.90;;;;;;5123753;28;19928;-72
2023/01/03 11:29:05;;;;;;;;;;;8.70;99.90;;;;;;5138988;27;19920;-72
2023/01/03 11:31:39;;;;;;;;;;;8.80;99.90;;;;;;5145035;27;19926;-71
2023/01/03 11:34:16;;;;;;;;;;;8.80;99.90;;;;;;5144292;27;20235;-72
2023/01/03 11:36:46;;;;;;;;;;;9.00;99.90;;;;;;5144164;27;19919;-72
2023/01/03 11:39:19;;;;;;;;;;;9.10;99.90;;;;;;5134442;27;19923;-72
2023/01/03 11:41:58;;;;;;;;;;;9.40;99.90;;;;;;5142779;27;19995;-72
2023/01/03 11:44:48;;;;;;;;;;;9.50;99.90;;;;;;5143797;27;19986;-72
2023/01/03 11:47:19;;;;;;;;;;;9.60;99.90;;;;;;5145859;27;19919;-72
2023/01/03 11:50:01;;;;;;;;;;;9.60;99.90;;;;;;5141273;27;19926;-71
2023/01/03 11:52:30;;;;;;;;;;;9.70;99.90;;;;;;5129171;27;19982;-71
2023/01/03 11:55:23;;;;;;;;;;;9.60;99.90;;;;;;5139781;27;19919;-70
2023/01/03 11:57:54;;;;;;;;;;;9.70;99.90;;;;;;5123260;28;20267;-71
2023/01/03 12:00:24;;;;;;;;;;;9.80;99.90;;;;;;5142498;28;19986;-72
2023/01/03 12:03:01;;;;;;;;;;;10.00;99.90;;;;;;5140220;27;20075;-72
2023/01/03 12:05:43;;;;;;;;;;;10.20;99.90;;;;;;5140886;27;19919;-72
2023/01/03 12:08:28;;;;;;;;;;;10.30;99.90;;;;;;5134617;27;19987;-71
2023/01/03 12:10:59;;;;;;;;;;;10.40;99.90;;;;;;5140920;28;20207;-74
2023/01/03 12:13:29;;;;;;;;;;;10.50;99.90;;;;;;5129409;27;19979;-72
2023/01/03 12:15:58;;;;;;;;;;;10.70;99.90;;;;;;5125378;28;19935;-71
2023/01/03 12:18:28;;;;;;;;;;;10.70;99.90;;;;;;5142205;27;19926;-72
2023/01/03 12:20:57;;;;;;;;;;;10.70;99.90;;;;;;5140648;28;19950;-72
2023/01/03 12:23:30;;;;;;;;;;;10.70;99.90;;;;;;5143464;28;19982;-72
2023/01/03 12:26:01;;;;;;;;;;;10.80;99.90;;;;;;5143886;27;19950;-69
2023/01/03 12:28:32;;;;;;;;;;;10.80;99.90;;;;;;5144216;27;20110;-71
2023/01/03 12:31:00;;;;;;;;;;;10.80;99.90;;;;;;5144626;27;19919;-70
2023/01/03 12:33:31;;;;;;;;;;;11.00;99.90;;;;;;5143560;27;19979;-71
2023/01/03 12:36:01;;;;;;;;;;;11.10;99.90;;;;;;5143616;27;20507;-70
2023/01/03 12:38:30;;;;;;;;;;;11.20;99.90;;;;;;5133817;27;20003;-70
2023/01/03 12:41:00;;;;;;;;;;;11.40;99.90;;;;;;5123677;28;19927;-70
2023/01/03 12:43:30;;;;;;;;;;;11.40;99.90;;;;;;5131656;27;19926;-70
2023/01/03 12:46:00;;;;;;;;;;;11.50;99.90;;;;;;5135684;28;19983;-70
2023/01/03 12:48:33;;;;;;;;;;;11.70;99.90;;;;;;5144082;27;19919;-70
2023/01/03 12:51:00;;;;;;;;;;;11.80;99.90;;;;;;5144437;27;19927;-70
2023/01/03 12:53:30;;;;;;;;;;;11.90;99.90;;;;;;5144300;27;19982;-70
2023/01/03 12:56:06;;;;;;;;;;;12.10;99.90;;;;;;5143836;27;19919;-70
2023/01/03 12:58:37;;;;;;;;;;;12.40;99.90;;;;;;5144210;27;19955;-70
2023/01/03 13:01:05;;;;;;;;;;;12.40;99.90;;;;;;5144123;27;19956;-70
2023/01/03 13:03:36;;;;;;;;;;;12.50;99.90;;;;;;5145388;27;20225;-70
2023/01/03 13:06:05;;;;;;;;;;;12.40;99.90;;;;;;5146634;27;19921;-72
2023/01/03 13:08:35;;;;;;;;;;;12.20;99.90;;;;;;5144580;27;19951;-70
2023/01/03 13:11:04;;;;;;;;;;;12.20;99.90;;;;;;5126969;28;19927;-69
2023/01/03 13:13:31;;;;;;;;;;;12.20;99.90;;;;;;5145330;27;19919;-69
2023/01/03 13:15:58;;;;;;;;;;;12.20;99.90;;;;;;5146897;27;20293;-70
2023/01/03 13:18:33;;;;;;;;;;;12.00;99.90;;;;;;5146962;27;20120;-70
2023/01/03 13:21:00;;;;;;;;;;;11.90;99.90;;;;;;5147606;27;20164;-70
2023/01/03 13:23:31;;;;;;;;;;;11.70;99.90;;;;;;5147222;27;19919;-69
2023/01/03 13:26:19;;;;;;;;;;;11.70;99.90;;;;;;5146164;27;19927;-72
2023/01/03 13:28:46;;;;;;;;;;;11.60;99.90;;;;;;5132476;27;20206;-70
2023/01/03 13:31:31;;;;;;;;;;;11.50;99.90;;;;;;5144526;27;19957;-74
2023/01/03 13:34:14;;;;;;;;;;;11.40;99.90;;;;;;5104604;28;20208;-69
2023/01/03 13:37:00;;;;;;;;;;;11.10;99.90;;;;;;5125156;27;19928;-70
2023/01/03 13:39:37;;;;;;;;;;;10.80;99.90;;;;;;5123282;28;19920;-70
2023/01/03 13:42:06;;;;;;;;;;;10.50;99.90;;;;;;5126541;28;19951;-70
2023/01/03 13:44:32;;;;;;;;;;;10.30;99.90;;;;;;5126351;28;19943;-70
2023/01/03 13:46:59;;;;;;;;;;;10.10;99.90;;;;;;5125922;28;19927;-70
2023/01/03 13:49:27;;;;;;;;;;;9.90;99.90;;;;;;5126594;28;19955;-69
2023/01/03 13:51:54;;;;;;;;;;;9.80;99.90;;;;;;5126571;28;19926;-70
2023/01/03 13:54:25;;;;;;;;;;;9.70;99.90;;;;;;5126255;28;19983;-70
2023/01/03 13:57:03;;;;;;;;;;;9.60;99.90;;;;;;5125161;28;20233;-70
2023/01/03 13:59:34;;;;;;;;;;;9.50;99.90;;;;;;5144533;27;20241;-70
2023/01/03 14:02:14;;;;;;;;;;;9.40;99.90;;;;;;5167600;27;20139;-70
2023/01/03 14:04:56;;;;;;;;;;;9.40;99.90;;;;;;5166376;27;19958;-70
2023/01/03 14:07:47;;;;;;;;;;;9.20;99.90;;;;;;5125081;28;19996;-69
2023/01/03 14:10:19;;;;;;;;;;;9.10;99.90;;;;;;5143460;27;19982;-70
2023/01/03 14:12:58;;;;;;;;;;;9.00;99.90;;;;;;5146493;27;19982;-71
2023/01/03 14:15:26;;;;;;;;;;;8.90;99.90;;;;;;5145792;27;19925;-70
2023/01/03 14:17:54;;;;;;;;;;;8.80;99.90;;;;;;5145443;27;20207;-69
2023/01/03 14:20:23;;;;;;;;;;;8.80;99.90;;;;;;5146893;27;19961;-72
2023/01/03 14:22:50;;;;;;;;;;;8.70;99.90;;;;;;5161011;27;20178;-70
2023/01/03 14:25:33;;;;;;;;;;;8.70;99.90;;;;;;5154032;27;19920;-70
2023/01/03 14:28:00;;;;;;;;;;;8.70;99.90;;;;;;5145096;27;20199;-70
2023/01/03 14:30:30;;;;;;;;;;;8.70;99.90;;;;;;5130351;27;19986;-70
2023/01/03 14:32:57;;;;;;;;;;;8.70;99.90;;;;;;5135616;27;19964;-70
2023/01/03 14:35:37;;;;;;;;;;;8.60;99.90;;;;;;5125178;28;19983;-69
2023/01/03 14:38:04;;;;;;;;;;;8.60;99.90;;;;;;5140063;27;19947;-70
2023/01/03 14:40:36;;;;;;;;;;;8.50;99.90;;;;;;5123749;28;19920;-70
2023/01/03 14:43:04;;;;;;;;;;;8.60;99.90;;;;;;5135126;27;19982;-69
2023/01/03 14:45:32;;;;;;;;;;;8.60;99.90;;;;;;5145574;27;19964;-70
2023/01/03 14:47:58;;;;;;;;;;;8.60;99.90;;;;;;5157340;27;19978;-70
2023/01/03 14:50:26;;;;;;;;;;;8.60;99.90;;;;;;5159536;27;19926;-71
2023/01/03 14:52:55;;;;;;;;;;;8.50;99.90;;;;;;5145886;27;20241;-69
2023/01/03 14:55:26;;;;;;;;;;;8.50;99.90;;;;;;5145591;27;20170;-70
2023/01/03 14:57:52;;;;;;;;;;;8.50;99.90;;;;;;5144666;27;19963;-70
2023/01/03 15:00:20;;;;;;;;;;;8.50;99.90;;;;;;5145578;27;19979;-70
2023/01/03 15:02:48;;;;;;;;;;;8.40;99.90;;;;;;5143902;27;19958;-70
2023/01/03 15:05:23;;;;;;;;;;;8.40;99.90;;;;;;5130425;27;19926;-70
2023/01/03 15:07:50;;;;;;;;;;;8.30;99.90;;;;;;5144887;27;19926;-70
2023/01/03 15:10:18;;;;;;;;;;;8.20;99.90;;;;;;5142599;27;20457;-70
2023/01/03 15:12:46;;;;;;;;;;;8.20;99.90;;;;;;5144659;27;20207;-70
2023/01/03 15:15:18;;;;;;;;;;;8.20;99.90;;;;;;5145372;27;19978;-71
2023/01/03 15:17:46;;;;;;;;;;;8.20;99.90;;;;;;5144880;27;19983;-70
2023/01/03 15:20:16;;;;;;;;;;;8.10;99.90;;;;;;5144960;27;20255;-70
2023/01/03 15:22:43;;;;;;;;;;;8.20;99.90;;;;;;5145478;27;19924;-70
2023/01/03 15:25:16;;;;;;;;;;;8.20;99.90;;;;;;5144588;27;19920;-70
2023/01/03 15:27:44;;;;;;;;;;;8.20;99.90;;;;;;5148028;27;19925;-72
2023/01/03 15:30:19;;;;;;;;;;;8.10;99.90;;;;;;5150509;27;19979;-70
2023/01/03 15:32:48;;;;;;;;;;;8.00;99.90;;;;;;5144780;27;20154;-71
2023/01/03 15:35:20;;;;;;;;;;;8.00;99.90;;;;;;5144939;27;19954;-70
2023/01/03 15:37:47;;;;;;;;;;;7.90;99.90;;;;;;5135505;27;20250;-71
2023/01/03 15:40:14;;;;;;;;;;;7.80;99.90;;;;;;5124732;28;20172;-71
2023/01/03 15:45:27;;;;;;;;;;;7.60;99.90;;;;;;5124398;28;20118;-70